Time;durP1;ratioP1;P1;durP2;ratioP2;P2;SDS_P1;SDS_P2;PMS_P1;PMS_P2;Temp;Humidity;BMP_temperature;BMP_pressure;BME280_temperature;BME280_humidity;BME280_pressure;Samples;Min_cycle;Max_cycle;Signal;HPM_P1;HPM_P2
2023/07/22 00:02:04;;;;;;;1.33;1.33;;;;;;;;;;6311519;28;20244;-74
2023/07/22 00:05:11;;;;;;;1.45;1.27;;;;;;;;;;6311271;28;20302;-74
2023/07/22 00:08:14;;;;;;;1.13;1.13;;;;;;;;;;6310980;28;20350;-74
2023/07/22 00:11:18;;;;;;;1.20;1.20;;;;;;;;;;6310584;28;20250;-74
2023/07/22 00:14:22;;;;;;;2.85;1.30;;;;;;;;;;6334407;28;20542;-74
2023/07/22 00:17:26;;;;;;;2.05;1.25;;;;;;;;;;6335934;28;20258;-74
2023/07/22 00:20:31;;;;;;;2.40;1.20;;;;;;;;;;6335874;28;20262;-74
2023/07/22 00:23:35;;;;;;;2.08;1.10;;;;;;;;;;6335857;28;20242;-74
2023/07/22 00:26:39;;;;;;;1.10;1.10;;;;;;;;;;6335328;28;20262;-74
2023/07/22 00:29:43;;;;;;;1.38;1.17;;;;;;;;;;6335855;28;20239;-74
2023/07/22 00:32:46;;;;;;;2.88;1.30;;;;;;;;;;6335811;28;20246;-74
2023/07/22 00:35:52;;;;;;;2.67;1.27;;;;;;;;;;6335494;28;20549;-75
2023/07/22 00:38:56;;;;;;;3.13;1.38;;;;;;;;;;6335803;28;20234;-74
2023/07/22 00:42:00;;;;;;;2.55;1.42;;;;;;;;;;6335379;28;20238;-74
2023/07/22 00:45:04;;;;;;;1.05;1.02;;;;;;;;;;6335548;28;20248;-74
2023/07/22 00:48:08;;;;;;;1.35;1.13;;;;;;;;;;6334494;28;20475;-74
2023/07/22 00:51:14;;;;;;;2.50;1.10;;;;;;;;;;6340808;28;20234;-74
2023/07/22 00:54:18;;;;;;;2.65;1.17;;;;;;;;;;6339235;28;20274;-73
2023/07/22 00:57:22;;;;;;;1.33;1.20;;;;;;;;;;6339313;28;20269;-74
2023/07/22 01:00:26;;;;;;;1.52;1.40;;;;;;;;;;6350575;22;20245;31
2023/07/22 01:03:31;;;;;;;2.38;1.40;;;;;;;;;;6270092;28;20300;-78
2023/07/22 01:06:37;;;;;;;3.28;1.23;;;;;;;;;;6255831;28;20269;-79
2023/07/22 01:09:42;;;;;;;3.67;1.42;;;;;;;;;;6240393;28;20248;-79
2023/07/22 01:12:47;;;;;;;1.30;1.10;;;;;;;;;;6243387;28;20431;-78
2023/07/22 01:15:51;;;;;;;2.45;1.10;;;;;;;;;;6240097;28;20236;-78
2023/07/22 01:18:55;;;;;;;1.60;1.20;;;;;;;;;;6282693;28;20248;-80
2023/07/22 01:22:01;;;;;;;1.10;1.10;;;;;;;;;;6240559;28;20272;-78
2023/07/22 01:25:08;;;;;;;1.33;1.33;;;;;;;;;;6240114;28;20237;-79
2023/07/22 01:28:12;;;;;;;3.42;1.20;;;;;;;;;;6271498;28;20407;-79
2023/07/22 01:31:15;;;;;;;1.45;1.40;;;;;;;;;;6240039;28;20245;-79
2023/07/22 01:34:19;;;;;;;1.63;1.48;;;;;;;;;;6239951;28;20249;-79
2023/07/22 01:37:23;;;;;;;2.83;1.30;;;;;;;;;;6239405;28;20448;-79
2023/07/22 01:40:29;;;;;;;1.20;1.20;;;;;;;;;;6239364;28;20245;-79
2023/07/22 01:43:32;;;;;;;2.33;0.95;;;;;;;;;;6239246;28;20430;-78
2023/07/22 01:46:36;;;;;;;1.40;0.98;;;;;;;;;;6239652;28;20244;-79
2023/07/22 01:49:40;;;;;;;1.38;1.05;;;;;;;;;;6239517;28;20272;-80
2023/07/22 01:52:46;;;;;;;1.35;1.20;;;;;;;;;;6239570;28;20271;-79
2023/07/22 01:55:51;;;;;;;5.72;1.00;;;;;;;;;;6239372;28;20502;-79
2023/07/22 01:58:55;;;;;;;3.03;1.15;;;;;;;;;;6271109;28;20279;-79
2023/07/22 02:01:59;;;;;;;3.55;1.58;;;;;;;;;;6253603;28;20304;-79
2023/07/22 02:05:03;;;;;;;1.30;1.20;;;;;;;;;;6271027;28;20272;-79
2023/07/22 02:08:07;;;;;;;2.47;1.25;;;;;;;;;;6254835;28;20288;-78
2023/07/22 02:11:12;;;;;;;1.65;1.30;;;;;;;;;;6257150;28;20277;-79
2023/07/22 02:14:16;;;;;;;1.58;1.48;;;;;;;;;;6254386;28;20273;-79
2023/07/22 02:17:20;;;;;;;1.48;1.15;;;;;;;;;;6239071;28;20245;-79
2023/07/22 02:20:26;;;;;;;2.53;1.20;;;;;;;;;;6254097;28;20265;-79
2023/07/22 02:23:30;;;;;;;1.20;1.20;;;;;;;;;;6238605;28;20246;-79
2023/07/22 02:26:35;;;;;;;1.70;1.60;;;;;;;;;;6254049;28;20574;-79
2023/07/22 02:29:39;;;;;;;0.90;0.90;;;;;;;;;;6238558;28;20264;-80
2023/07/22 02:32:43;;;;;;;2.15;1.30;;;;;;;;;;6238565;28;20261;-78
2023/07/22 02:35:48;;;;;;;4.22;1.25;;;;;;;;;;6238464;28;20241;-80
2023/07/22 02:38:51;;;;;;;1.48;1.40;;;;;;;;;;6238259;28;20252;-79
2023/07/22 02:41:57;;;;;;;2.55;1.30;;;;;;;;;;6254916;28;20287;-79
2023/07/22 02:45:00;;;;;;;3.13;1.50;;;;;;;;;;6251780;28;20204;-78
2023/07/22 02:48:05;;;;;;;1.60;1.52;;;;;;;;;;6252979;28;20293;-79
2023/07/22 02:51:10;;;;;;;1.15;1.15;;;;;;;;;;6237913;28;20236;-78
2023/07/22 02:54:14;;;;;;;1.02;1.00;;;;;;;;;;6237640;28;20265;-78
2023/07/22 02:57:19;;;;;;;5.63;1.25;;;;;;;;;;6253030;28;20273;-78
2023/07/22 03:00:24;;;;;;;1.30;1.20;;;;;;;;;;6252981;28;20272;-78
2023/07/22 03:03:28;;;;;;;1.55;1.55;;;;;;;;;;6262718;28;20232;-78
2023/07/22 03:06:32;;;;;;;1.17;1.17;;;;;;;;;;6261105;28;20271;-78
2023/07/22 03:09:36;;;;;;;1.52;1.40;;;;;;;;;;6262220;28;20279;-78
2023/07/22 03:12:41;;;;;;;2.42;1.00;;;;;;;;;;6276495;28;20289;-78
2023/07/22 03:15:45;;;;;;;3.05;1.65;;;;;;;;;;6261972;28;20256;-78
2023/07/22 03:18:49;;;;;;;13.75;7.45;;;;;;;;;;6277147;28;20282;-78
2023/07/22 03:21:53;;;;;;;24.50;13.30;;;;;;;;;;6261960;28;20249;-79
2023/07/22 03:24:57;;;;;;;40.75;18.25;;;;;;;;;;6262053;28;20251;-77
2023/07/22 03:28:04;;;;;;;30.38;15.85;;;;;;;;;;6261543;28;20423;-78
2023/07/22 03:31:09;;;;;;;20.67;10.10;;;;;;;;;;6260337;28;20268;-78
2023/07/22 03:34:13;;;;;;;5.07;4.47;;;;;;;;;;6259717;28;20275;-78
2023/07/22 03:37:16;;;;;;;5.35;3.83;;;;;;;;;;6277512;28;20292;-78
2023/07/22 03:40:20;;;;;;;5.38;3.38;;;;;;;;;;6261977;28;20537;-79
2023/07/22 03:43:26;;;;;;;3.00;2.80;;;;;;;;;;6276928;28;20310;-78
2023/07/22 03:46:29;;;;;;;2.58;2.22;;;;;;;;;;6261061;28;20351;-78
2023/07/22 03:49:33;;;;;;;1.92;1.65;;;;;;;;;;6261530;28;20528;-78
2023/07/22 03:52:37;;;;;;;1.80;1.70;;;;;;;;;;6261433;28;20240;-78
2023/07/22 03:55:41;;;;;;;1.70;1.60;;;;;;;;;;6276980;28;20275;-78
2023/07/22 03:58:47;;;;;;;1.33;1.33;;;;;;;;;;6261614;28;20245;-79
2023/07/22 04:01:54;;;;;;;1.50;1.40;;;;;;;;;;6260806;28;20433;-79
2023/07/22 04:04:57;;;;;;;1.63;1.52;;;;;;;;;;6276591;28;20273;-79
2023/07/22 04:08:01;;;;;;;2.92;1.50;;;;;;;;;;6262226;28;20252;-78
2023/07/22 04:11:05;;;;;;;1.45;1.40;;;;;;;;;;6273377;28;20276;-78
2023/07/22 04:14:12;;;;;;;2.38;1.40;;;;;;;;;;6259378;28;20268;-78
2023/07/22 04:17:16;;;;;;;1.25;1.25;;;;;;;;;;6260799;28;20259;-80
2023/07/22 04:20:20;;;;;;;1.67;1.10;;;;;;;;;;6261022;28;20244;-77
2023/07/22 04:23:23;;;;;;;1.50;1.42;;;;;;;;;;6260541;28;20253;-78
2023/07/22 04:26:27;;;;;;;3.33;1.40;;;;;;;;;;6260816;28;20257;-77
2023/07/22 04:29:33;;;;;;;1.73;1.42;;;;;;;;;;6260724;28;20263;-78
2023/07/22 04:32:42;;;;;;;1.55;1.30;;;;;;;;;;6260787;28;20232;-78
2023/07/22 04:35:46;;;;;;;1.13;1.02;;;;;;;;;;6276166;28;20268;-78
2023/07/22 04:38:50;;;;;;;2.25;1.40;;;;;;;;;;6264002;28;20540;-78
2023/07/22 04:41:54;;;;;;;1.50;1.13;;;;;;;;;;6260640;28;20249;-79
2023/07/22 04:44:59;;;;;;;1.75;1.30;;;;;;;;;;6260704;28;20517;-78
2023/07/22 04:48:03;;;;;;;3.28;1.30;;;;;;;;;;6260537;28;20232;-79
2023/07/22 04:51:08;;;;;;;1.02;1.02;;;;;;;;;;6260030;28;20268;-79
2023/07/22 04:54:12;;;;;;;2.28;1.38;;;;;;;;;;6260699;28;20245;-79
2023/07/22 04:57:18;;;;;;;5.80;1.10;;;;;;;;;;6260400;28;20241;-78
2023/07/22 05:00:23;;;;;;;1.75;1.10;;;;;;;;;;6260157;28;20256;-78
2023/07/22 05:03:27;;;;;;;1.20;1.10;;;;;;;;;;6259615;28;20404;-79
2023/07/22 05:06:31;;;;;;;2.33;1.20;;;;;;;;;;6259989;28;20252;-78
2023/07/22 05:09:35;;;;;;;2.25;1.40;;;;;;;;;;6275671;28;20291;-78
2023/07/22 05:12:39;;;;;;;8.88;1.77;;;;;;;;;;6259866;28;20232;-79
2023/07/22 05:15:44;;;;;;;2.10;1.10;;;;;;;;;;6260369;28;20236;-79
2023/07/22 05:18:48;;;;;;;2.70;1.30;;;;;;;;;;6260211;28;20247;-78
2023/07/22 05:21:52;;;;;;;1.92;1.67;;;;;;;;;;6259586;28;20426;-81
2023/07/22 05:24:56;;;;;;;6.07;4.15;;;;;;;;;;6259984;28;20232;-80
2023/07/22 05:28:00;;;;;;;4.90;3.05;;;;;;;;;;6259712;28;20524;-80
2023/07/22 05:31:05;;;;;;;5.03;2.53;;;;;;;;;;6260160;28;20269;-79
2023/07/22 05:34:09;;;;;;;1.92;1.60;;;;;;;;;;6263547;28;20233;-79
2023/07/22 05:37:12;;;;;;;2.90;2.70;;;;;;;;;;6274840;28;20208;-78
2023/07/22 05:40:16;;;;;;;3.70;3.20;;;;;;;;;;6264280;28;20248;-79
2023/07/22 05:43:20;;;;;;;5.63;2.30;;;;;;;;;;6264382;28;20244;-79
2023/07/22 05:46:26;;;;;;;2.80;2.00;;;;;;;;;;6263456;28;20272;-79
2023/07/22 05:49:30;;;;;;;1.85;1.73;;;;;;;;;;6264327;28;20240;-79
2023/07/22 05:52:33;;;;;;;2.38;2.20;;;;;;;;;;6263710;28;20240;-79
2023/07/22 05:55:37;;;;;;;2.47;2.08;;;;;;;;;;6263728;28;20245;-79
2023/07/22 05:58:41;;;;;;;2.40;1.67;;;;;;;;;;6263723;28;20243;-79
2023/07/22 06:01:46;;;;;;;1.58;1.48;;;;;;;;;;6265491;28;20283;-79
2023/07/22 06:04:50;;;;;;;5.43;1.42;;;;;;;;;;6264176;28;20233;-79
2023/07/22 06:07:57;;;;;;;1.95;1.20;;;;;;;;;;6263932;28;20244;-79
2023/07/22 06:11:01;;;;;;;2.22;1.10;;;;;;;;;;6263442;28;20272;-79
2023/07/22 06:14:04;;;;;;;1.52;1.20;;;;;;;;;;6263906;28;20235;-79
2023/07/22 06:17:10;;;;;;;5.35;1.63;;;;;;;;;;6263307;28;20245;-79
2023/07/22 06:20:13;;;;;;;1.05;1.05;;;;;;;;;;6263613;28;20328;-79
2023/07/22 06:23:17;;;;;;;4.00;1.27;;;;;;;;;;6263387;28;20243;-80
2023/07/22 06:26:21;;;;;;;4.55;2.05;;;;;;;;;;6266293;28;20228;-79
2023/07/22 06:29:26;;;;;;;3.22;1.13;;;;;;;;;;6262146;28;20263;-79
2023/07/22 06:32:32;;;;;;;4.38;1.27;;;;;;;;;;6263270;28;20273;-79
2023/07/22 06:35:35;;;;;;;1.60;1.10;;;;;;;;;;6263330;28;20236;-79
2023/07/22 06:38:39;;;;;;;2.70;1.23;;;;;;;;;;6262843;28;20249;-80
2023/07/22 06:41:43;;;;;;;1.25;1.05;;;;;;;;;;6263087;28;20244;-79
2023/07/22 06:44:49;;;;;;;2.22;1.50;;;;;;;;;;6262728;28;20432;-79
2023/07/22 06:47:54;;;;;;;3.97;1.27;;;;;;;;;;6261525;28;20241;-79
2023/07/22 06:50:58;;;;;;;2.92;1.17;;;;;;;;;;6262736;28;20260;-80
2023/07/22 06:54:03;;;;;;;1.30;1.23;;;;;;;;;;6277886;28;20451;-80
2023/07/22 06:57:07;;;;;;;2.85;1.00;;;;;;;;;;6262528;28;20237;-80
2023/07/22 07:00:12;;;;;;;1.08;0.95;;;;;;;;;;6266915;28;20217;-80
2023/07/22 07:03:17;;;;;;;2.15;1.10;;;;;;;;;;6262830;28;20329;-79
2023/07/22 07:06:21;;;;;;;1.33;0.98;;;;;;;;;;6239259;28;20265;-78
2023/07/22 07:09:25;;;;;;;4.30;1.00;;;;;;;;;;6239746;28;20249;-79
2023/07/22 07:12:29;;;;;;;1.60;1.30;;;;;;;;;;6237777;28;20308;-80
2023/07/22 07:15:32;;;;;;;1.35;1.35;;;;;;;;;;6237476;28;20244;-79
2023/07/22 07:18:38;;;;;;;2.00;1.02;;;;;;;;;;6237330;28;20266;-80
2023/07/22 07:21:41;;;;;;;4.50;1.50;;;;;;;;;;6237533;28;20315;-80
2023/07/22 07:24:45;;;;;;;2.47;1.42;;;;;;;;;;6237172;28;20253;-79
2023/07/22 07:27:49;;;;;;;3.05;1.38;;;;;;;;;;6236890;28;20241;-79
2023/07/22 07:30:53;;;;;;;1.95;1.30;;;;;;;;;;6236819;28;20264;-79
2023/07/22 07:33:58;;;;;;;4.30;1.10;;;;;;;;;;6237193;28;20427;-79
2023/07/22 07:37:02;;;;;;;1.08;1.05;;;;;;;;;;6237189;28;20241;-79
2023/07/22 07:40:08;;;;;;;2.15;1.10;;;;;;;;;;6236797;28;20245;-78
2023/07/22 07:43:12;;;;;;;1.50;1.02;;;;;;;;;;6236857;28;20362;-80
2023/07/22 07:46:21;;;;;;;2.38;1.30;;;;;;;;;;6236953;28;20530;-79
2023/07/22 07:49:27;;;;;;;1.10;1.10;;;;;;;;;;6236575;28;20478;-80
2023/07/22 07:52:31;;;;;;;1.98;1.35;;;;;;;;;;6236455;28;20264;-80
2023/07/22 07:55:35;;;;;;;1.00;1.00;;;;;;;;;;6236781;28;20240;-80
2023/07/22 07:58:39;;;;;;;2.45;1.23;;;;;;;;;;6236577;28;20261;-80
2023/07/22 08:01:43;;;;;;;1.35;1.25;;;;;;;;;;6246295;28;20303;-79
2023/07/22 08:04:48;;;;;;;1.13;1.10;;;;;;;;;;6260980;28;20408;-78
2023/07/22 08:07:52;;;;;;;1.15;1.05;;;;;;;;;;6260917;28;20431;-80
2023/07/22 08:11:00;;;;;;;0.98;0.98;;;;;;;;;;6260920;28;20540;-80
2023/07/22 08:14:05;;;;;;;1.02;1.02;;;;;;;;;;6260893;28;20236;-79
2023/07/22 08:17:09;;;;;;;3.15;1.42;;;;;;;;;;6261030;28;20252;-79
2023/07/22 08:20:14;;;;;;;1.00;1.00;;;;;;;;;;6260605;28;20240;-79
2023/07/22 08:23:18;;;;;;;3.22;1.30;;;;;;;;;;6260523;28;20426;-79
2023/07/22 08:26:21;;;;;;;1.10;1.10;;;;;;;;;;6270571;28;20241;-78
2023/07/22 08:29:26;;;;;;;1.38;1.10;;;;;;;;;;6267985;28;20260;-79
2023/07/22 08:32:29;;;;;;;1.20;1.10;;;;;;;;;;6275544;28;20446;-78
2023/07/22 08:35:35;;;;;;;2.30;1.05;;;;;;;;;;6260909;28;20240;-80
2023/07/22 08:38:38;;;;;;;1.67;1.00;;;;;;;;;;6260448;28;20243;-79
2023/07/22 08:41:46;;;;;;;1.27;1.10;;;;;;;;;;6260475;28;20240;-79
2023/07/22 08:44:54;;;;;;;1.05;1.00;;;;;;;;;;6260808;28;20248;-78
2023/07/22 08:47:59;;;;;;;0.90;0.90;;;;;;;;;;6260504;28;20240;-78
2023/07/22 08:51:08;;;;;;;2.00;1.05;;;;;;;;;;6260152;28;20259;-79
2023/07/22 08:54:12;;;;;;;1.20;1.10;;;;;;;;;;6258989;28;20303;-79
2023/07/22 08:57:16;;;;;;;2.28;0.95;;;;;;;;;;6260466;28;20236;-79
2023/07/22 09:00:19;;;;;;;0.98;0.90;;;;;;;;;;6260275;28;20280;-78
2023/07/22 09:03:24;;;;;;;1.48;0.80;;;;;;;;;;6263217;28;20283;-80
2023/07/22 09:06:30;;;;;;;0.95;0.95;;;;;;;;;;6268759;28;20233;-79
2023/07/22 09:09:35;;;;;;;1.90;1.00;;;;;;;;;;6274421;28;20220;-76
2023/07/22 09:12:40;;;;;;;1.17;1.10;;;;;;;;;;6278087;28;20265;-79
2023/07/22 09:15:44;;;;;;;1.02;1.00;;;;;;;;;;6267404;28;20236;-79
2023/07/22 09:18:48;;;;;;;1.02;1.00;;;;;;;;;;6264930;28;20240;-79
2023/07/22 09:21:53;;;;;;;0.95;0.95;;;;;;;;;;6266385;28;20418;-80
2023/07/22 09:25:13;;;;;;;0.90;0.90;;;;;;;;;;6267440;28;20272;-79
2023/07/22 09:28:17;;;;;;;1.02;1.00;;;;;;;;;;6264669;28;20521;-81
2023/07/22 09:31:22;;;;;;;2.25;0.95;;;;;;;;;;6264917;28;20240;-79
2023/07/22 09:34:26;;;;;;;0.85;0.85;;;;;;;;;;6264455;28;20267;-80
2023/07/22 09:37:38;;;;;;;4.63;1.00;;;;;;;;;;6267710;28;20241;-79
2023/07/22 09:40:42;;;;;;;0.90;0.90;;;;;;;;;;6264270;28;20495;-80
2023/07/22 09:43:48;;;;;;;3.58;1.00;;;;;;;;;;6264216;28;20437;-79
2023/07/22 09:46:52;;;;;;;1.08;1.08;;;;;;;;;;6264250;28;20426;-79
2023/07/22 09:49:56;;;;;;;0.88;0.88;;;;;;;;;;6264544;28;20529;-78
2023/07/22 09:53:03;;;;;;;1.55;1.00;;;;;;;;;;6275828;28;20303;-79
2023/07/22 09:56:07;;;;;;;2.22;1.20;;;;;;;;;;6266390;28;20548;-81
2023/07/22 09:59:12;;;;;;;1.20;1.10;;;;;;;;;;6264339;28;20560;-81
2023/07/22 10:02:20;;;;;;;0.93;0.93;;;;;;;;;;6263535;28;20296;-80
2023/07/22 10:05:26;;;;;;;1.75;1.30;;;;;;;;;;6264213;28;20240;-80
2023/07/22 10:08:31;;;;;;;1.00;1.00;;;;;;;;;;6264370;28;20423;-80
2023/07/22 10:11:36;;;;;;;0.95;0.95;;;;;;;;;;6266417;28;20433;-80
2023/07/22 10:14:39;;;;;;;1.10;1.10;;;;;;;;;;6263643;28;20264;-78
2023/07/22 10:17:44;;;;;;;2.05;1.25;;;;;;;;;;6263704;28;20332;-80
2023/07/22 10:20:49;;;;;;;1.17;1.08;;;;;;;;;;6277747;28;20268;-79
2023/07/22 10:23:55;;;;;;;1.15;1.15;;;;;;;;;;6263467;28;20244;-79
2023/07/22 10:26:59;;;;;;;1.15;1.15;;;;;;;;;;6263050;28;20248;-80
2023/07/22 10:30:04;;;;;;;1.20;1.10;;;;;;;;;;6277909;28;20267;-78
2023/07/22 10:33:07;;;;;;;1.20;1.00;;;;;;;;;;6261702;28;20376;-79
2023/07/22 10:36:15;;;;;;;1.33;1.30;;;;;;;;;;6263171;28;20237;-79
2023/07/22 10:39:27;;;;;;;3.85;1.08;;;;;;;;;;6262735;28;20252;-79
2023/07/22 10:42:32;;;;;;;3.00;1.50;;;;;;;;;;6262917;28;20240;-80
2023/07/22 10:45:42;;;;;;;1.10;1.10;;;;;;;;;;6262460;28;20529;-80
2023/07/22 10:48:46;;;;;;;1.20;1.20;;;;;;;;;;6262371;28;20244;-81
2023/07/22 10:51:50;;;;;;;1.42;1.42;;;;;;;;;;6264349;28;20244;-79
2023/07/22 10:54:57;;;;;;;1.50;1.40;;;;;;;;;;6262854;28;20265;-80
2023/07/22 10:58:06;;;;;;;1.20;1.20;;;;;;;;;;6263102;28;20236;-80
2023/07/22 11:01:25;;;;;;;1.65;1.55;;;;;;;;;;6262264;28;20284;-80
2023/07/22 11:04:32;;;;;;;1.73;1.50;;;;;;;;;;6262264;28;20437;-80
2023/07/22 11:07:44;;;;;;;1.55;1.45;;;;;;;;;;6262040;28;20239;-80
2023/07/22 11:10:56;;;;;;;1.88;1.20;;;;;;;;;;6262189;28;20324;-81
2023/07/22 11:14:14;;;;;;;1.20;1.20;;;;;;;;;;6262149;28;20507;-79
2023/07/22 11:17:19;;;;;;;1.67;1.67;;;;;;;;;;6272733;28;20208;-79
2023/07/22 11:20:23;;;;;;;1.60;1.50;;;;;;;;;;6261862;28;20430;-79
2023/07/22 11:23:27;;;;;;;4.20;1.70;;;;;;;;;;6261649;28;20248;-78
2023/07/22 11:26:33;;;;;;;1.77;1.67;;;;;;;;;;6261467;28;20240;-80
2023/07/22 11:29:37;;;;;;;1.50;1.50;;;;;;;;;;6262253;28;20240;-79
2023/07/22 11:32:43;;;;;;;1.95;1.70;;;;;;;;;;6260659;28;20240;-80
2023/07/22 11:35:47;;;;;;;1.75;1.75;;;;;;;;;;6261565;28;20264;-80
2023/07/22 11:38:51;;;;;;;1.83;1.75;;;;;;;;;;6261441;28;20241;-80
2023/07/22 11:41:56;;;;;;;1.95;1.70;;;;;;;;;;6261769;28;20240;-80
2023/07/22 11:45:00;;;;;;;1.88;1.77;;;;;;;;;;6261458;28;20239;-79
2023/07/22 11:48:10;;;;;;;1.67;1.58;;;;;;;;;;6261579;28;20235;-79
2023/07/22 11:51:14;;;;;;;1.77;1.73;;;;;;;;;;6261504;28;20233;-79
2023/07/22 11:54:18;;;;;;;1.75;1.65;;;;;;;;;;6260795;28;20276;-80
2023/07/22 11:57:24;;;;;;;1.73;1.73;;;;;;;;;;6260776;28;20232;-79
2023/07/22 12:00:28;;;;;;;1.60;1.45;;;;;;;;;;6259937;28;20268;-79
2023/07/22 12:03:33;;;;;;;1.70;1.60;;;;;;;;;;6262166;28;20296;-79
2023/07/22 12:06:37;;;;;;;2.25;1.83;;;;;;;;;;6262638;28;20245;-79
2023/07/22 12:09:42;;;;;;;1.83;1.80;;;;;;;;;;6261168;28;20508;-79
2023/07/22 12:12:49;;;;;;;1.98;1.80;;;;;;;;;;6260790;28;20236;-79
2023/07/22 12:16:01;;;;;;;2.10;2.00;;;;;;;;;;6260406;28;20564;-79
2023/07/22 12:19:05;;;;;;;2.00;2.00;;;;;;;;;;6260660;28;20240;-80
2023/07/22 12:22:10;;;;;;;3.38;1.98;;;;;;;;;;6259507;28;20267;-80
2023/07/22 12:25:14;;;;;;;3.58;2.00;;;;;;;;;;6260297;28;20268;-81
2023/07/22 12:28:19;;;;;;;3.88;2.20;;;;;;;;;;6260477;28;20260;-80
2023/07/22 12:31:23;;;;;;;1.88;1.88;;;;;;;;;;6260345;28;20249;-80
2023/07/22 12:34:27;;;;;;;1.75;1.70;;;;;;;;;;6260502;28;20476;-80
2023/07/22 12:37:30;;;;;;;2.15;2.05;;;;;;;;;;6260237;28;20245;-79
2023/07/22 12:40:34;;;;;;;2.35;2.35;;;;;;;;;;6260597;28;20236;-80
2023/07/22 12:43:39;;;;;;;2.05;2.05;;;;;;;;;;6271286;28;20193;-80
2023/07/22 12:46:43;;;;;;;2.33;2.25;;;;;;;;;;6267861;28;20274;-80
2023/07/22 12:49:47;;;;;;;2.55;2.20;;;;;;;;;;6264961;28;20449;-79
2023/07/22 12:52:51;;;;;;;2.50;2.40;;;;;;;;;;6265403;28;20501;-79
2023/07/22 12:55:55;;;;;;;2.20;2.20;;;;;;;;;;6264893;28;20279;-79
2023/07/22 12:59:00;;;;;;;2.72;2.15;;;;;;;;;;6265358;28;20237;-79
2023/07/22 13:02:04;;;;;;;2.20;2.10;;;;;;;;;;6265080;28;20295;-79
2023/07/22 13:05:08;;;;;;;2.50;2.40;;;;;;;;;;6264580;28;20249;-79
2023/07/22 13:08:12;;;;;;;2.30;2.20;;;;;;;;;;6264968;28;20240;-80
2023/07/22 13:11:16;;;;;;;2.25;2.20;;;;;;;;;;6264494;28;20246;-80
2023/07/22 13:14:21;;;;;;;2.50;2.30;;;;;;;;;;6264427;28;20283;-79
2023/07/22 13:17:25;;;;;;;3.13;2.25;;;;;;;;;;6264743;28;20252;-80
2023/07/22 13:20:29;;;;;;;2.42;2.33;;;;;;;;;;6264380;28;20240;-79
2023/07/22 13:23:32;;;;;;;3.58;2.28;;;;;;;;;;6264284;28;20272;-80
2023/07/22 13:26:36;;;;;;;2.60;2.50;;;;;;;;;;6264194;28;20265;-79
2023/07/22 13:29:45;;;;;;;2.72;2.53;;;;;;;;;;6264655;28;20244;-80
2023/07/22 13:32:49;;;;;;;2.80;2.40;;;;;;;;;;6264135;28;20253;-79
2023/07/22 13:35:53;;;;;;;2.58;2.28;;;;;;;;;;6264327;28;20260;-80
2023/07/22 13:38:57;;;;;;;2.45;2.35;;;;;;;;;;6264127;28;20596;-79
2023/07/22 13:42:01;;;;;;;5.80;2.30;;;;;;;;;;6264377;28;20245;-80
2023/07/22 13:45:08;;;;;;;2.55;2.38;;;;;;;;;;6264981;28;20260;-79
2023/07/22 13:48:12;;;;;;;3.80;2.33;;;;;;;;;;6265474;28;20240;-79
2023/07/22 13:51:16;;;;;;;2.10;2.10;;;;;;;;;;6280086;28;20450;-79
2023/07/22 13:54:20;;;;;;;2.40;2.30;;;;;;;;;;6265321;28;20521;-79
2023/07/22 13:57:24;;;;;;;2.60;2.50;;;;;;;;;;6265289;28;20244;-79
2023/07/22 14:00:29;;;;;;;2.40;2.40;;;;;;;;;;6264554;28;20257;-78
2023/07/22 14:03:33;;;;;;;3.00;2.25;;;;;;;;;;6264346;28;20472;-79
2023/07/22 14:06:37;;;;;;;3.97;2.53;;;;;;;;;;6279795;28;20271;-79
2023/07/22 14:09:40;;;;;;;2.70;2.33;;;;;;;;;;6273797;28;20327;-79
2023/07/22 14:12:44;;;;;;;2.60;2.50;;;;;;;;;;6264258;28;20244;-79
2023/07/22 14:15:50;;;;;;;3.53;2.45;;;;;;;;;;6279427;28;20292;-79
2023/07/22 14:18:55;;;;;;;3.13;2.83;;;;;;;;;;6263667;28;20406;-79
2023/07/22 14:21:58;;;;;;;2.83;2.55;;;;;;;;;;6263355;28;20241;-79
2023/07/22 14:25:03;;;;;;;2.78;2.60;;;;;;;;;;6263730;28;20245;-79
2023/07/22 14:28:07;;;;;;;2.45;2.25;;;;;;;;;;6263167;28;20240;-80
2023/07/22 14:31:12;;;;;;;2.40;2.30;;;;;;;;;;6263025;28;20525;-78
2023/07/22 14:34:16;;;;;;;2.67;2.58;;;;;;;;;;6265895;28;20296;-80
2023/07/22 14:37:20;;;;;;;2.63;2.53;;;;;;;;;;6262626;28;20287;-80
2023/07/22 14:40:26;;;;;;;3.55;2.67;;;;;;;;;;6262469;28;20257;-79
2023/07/22 14:43:29;;;;;;;2.55;2.40;;;;;;;;;;6262821;28;20236;-78
2023/07/22 14:46:35;;;;;;;3.47;2.58;;;;;;;;;;6262527;28;20435;-79
2023/07/22 14:49:38;;;;;;;2.97;2.88;;;;;;;;;;6262387;28;20549;-79
2023/07/22 14:52:42;;;;;;;2.60;2.50;;;;;;;;;;6262802;28;20247;-79
2023/07/22 14:55:46;;;;;;;8.07;2.40;;;;;;;;;;6278080;28;20295;-78
2023/07/22 14:58:50;;;;;;;2.15;1.95;;;;;;;;;;6262174;28;20264;-80
2023/07/22 15:01:55;;;;;;;2.47;2.40;;;;;;;;;;6252615;28;20617;-80
2023/07/22 15:04:59;;;;;;;2.33;2.22;;;;;;;;;;6237774;28;20329;-79
2023/07/22 15:08:03;;;;;;;3.92;2.00;;;;;;;;;;6236976;28;20237;-79
2023/07/22 15:11:07;;;;;;;2.20;2.03;;;;;;;;;;6237347;28;20246;-80
2023/07/22 15:14:11;;;;;;;2.10;2.00;;;;;;;;;;6237780;28;20233;-80
2023/07/22 15:17:16;;;;;;;1.95;1.80;;;;;;;;;;6237199;28;20272;-80
2023/07/22 15:20:20;;;;;;;2.15;2.13;;;;;;;;;;6237478;28;20245;-79
2023/07/22 15:23:24;;;;;;;2.15;2.13;;;;;;;;;;6236850;28;20241;-80
2023/07/22 15:26:28;;;;;;;2.42;2.33;;;;;;;;;;6236933;28;20244;-79
2023/07/22 15:29:32;;;;;;;2.10;2.05;;;;;;;;;;6240724;28;20328;-80
2023/07/22 15:32:38;;;;;;;2.33;2.22;;;;;;;;;;6248044;28;20233;-79
2023/07/22 15:35:42;;;;;;;2.20;2.00;;;;;;;;;;6239795;28;20265;-80
2023/07/22 15:38:46;;;;;;;2.20;2.10;;;;;;;;;;6237006;28;20237;-79
2023/07/22 15:41:50;;;;;;;2.13;2.13;;;;;;;;;;6239564;28;20249;-80
2023/07/22 15:44:54;;;;;;;3.00;2.25;;;;;;;;;;6236701;28;20541;-79
2023/07/22 15:47:59;;;;;;;2.47;2.28;;;;;;;;;;6236991;28;20248;-79
2023/07/22 15:51:03;;;;;;;2.45;2.30;;;;;;;;;;6237284;28;20277;-79
2023/07/22 15:54:07;;;;;;;2.00;2.00;;;;;;;;;;6236981;28;20249;-79
2023/07/22 15:57:11;;;;;;;1.70;1.70;;;;;;;;;;6236604;28;20260;-80
2023/07/22 16:00:15;;;;;;;2.35;1.73;;;;;;;;;;6236459;28;20249;-80
2023/07/22 16:03:20;;;;;;;2.20;1.90;;;;;;;;;;6257765;28;20296;-79
2023/07/22 16:06:24;;;;;;;1.85;1.85;;;;;;;;;;6261165;28;20248;-79
2023/07/22 16:09:36;;;;;;;6.07;2.00;;;;;;;;;;6260886;28;20516;-79
2023/07/22 16:12:40;;;;;;;1.85;1.73;;;;;;;;;;6259650;28;20284;-79
2023/07/22 16:15:44;;;;;;;1.95;1.95;;;;;;;;;;6260750;28;20240;-79
2023/07/22 16:18:49;;;;;;;2.45;2.33;;;;;;;;;;6260740;28;20253;-79
2023/07/22 16:21:53;;;;;;;2.63;2.50;;;;;;;;;;6260485;28;20244;-79
2023/07/22 16:24:57;;;;;;;5.88;2.75;;;;;;;;;;6260710;28;20243;-78
2023/07/22 16:28:00;;;;;;;1.70;1.70;;;;;;;;;;6261011;28;20256;-79
2023/07/22 16:31:04;;;;;;;2.05;1.92;;;;;;;;;;6260914;28;20244;-80
2023/07/22 16:34:09;;;;;;;2.08;1.98;;;;;;;;;;6276120;28;20276;-79
2023/07/22 16:37:13;;;;;;;2.05;1.95;;;;;;;;;;6260661;28;20264;-79
2023/07/22 16:40:17;;;;;;;2.10;1.40;;;;;;;;;;6260277;28;20435;-79
2023/07/22 16:43:22;;;;;;;2.17;1.60;;;;;;;;;;6259972;28;20240;-79
2023/07/22 16:46:26;;;;;;;1.85;1.75;;;;;;;;;;6260375;28;20251;-79
2023/07/22 16:49:32;;;;;;;2.15;1.85;;;;;;;;;;6260313;28;20234;-79
2023/07/22 16:52:36;;;;;;;2.00;1.90;;;;;;;;;;6260071;28;20244;-79
2023/07/22 16:55:40;;;;;;;2.03;1.60;;;;;;;;;;6261747;28;20240;-79
2023/07/22 16:58:44;;;;;;;1.23;1.20;;;;;;;;;;6270127;28;20431;-78
2023/07/22 17:01:48;;;;;;;2.03;1.90;;;;;;;;;;6261970;28;20307;-80
2023/07/22 17:04:53;;;;;;;1.60;1.60;;;;;;;;;;6260369;28;20419;-79
2023/07/22 17:08:00;;;;;;;7.25;1.73;;;;;;;;;;6259777;28;20252;-79
2023/07/22 17:11:03;;;;;;;3.30;1.70;;;;;;;;;;6259840;28;20252;-79
2023/07/22 17:14:07;;;;;;;1.73;1.63;;;;;;;;;;6259843;28;20245;-79
2023/07/22 17:17:11;;;;;;;1.40;1.40;;;;;;;;;;6259979;28;20268;-78
2023/07/22 17:20:17;;;;;;;1.85;1.75;;;;;;;;;;6259893;28;20260;-79
2023/07/22 17:23:20;;;;;;;2.83;1.73;;;;;;;;;;6260192;28;20236;-78
2023/07/22 17:26:24;;;;;;;1.58;1.58;;;;;;;;;;6260035;28;20241;-78
2023/07/22 17:29:28;;;;;;;1.85;1.77;;;;;;;;;;6259839;28;20240;-80
2023/07/22 17:32:32;;;;;;;1.95;1.60;;;;;;;;;;6264619;28;20243;-80
2023/07/22 17:35:39;;;;;;;1.60;1.60;;;;;;;;;;6267090;28;20244;-80
2023/07/22 17:38:42;;;;;;;1.65;1.60;;;;;;;;;;6264491;28;20264;-80
2023/07/22 17:41:47;;;;;;;1.75;1.50;;;;;;;;;;6264402;28;20316;-80
2023/07/22 17:44:51;;;;;;;1.73;1.60;;;;;;;;;;6264463;28;20241;-80
2023/07/22 17:47:54;;;;;;;1.90;1.60;;;;;;;;;;6263862;28;20248;-80
2023/07/22 17:51:00;;;;;;;1.85;1.80;;;;;;;;;;6264290;28;20244;-80
2023/07/22 17:54:04;;;;;;;1.77;1.50;;;;;;;;;;6264498;28;20319;-80
2023/07/22 17:57:08;;;;;;;2.05;1.58;;;;;;;;;;6263690;28;20260;-80
2023/07/22 18:00:14;;;;;;;1.60;1.45;;;;;;;;;;6263912;28;20244;-79
2023/07/22 18:03:17;;;;;;;2.30;1.70;;;;;;;;;;6263474;28;20463;-80
2023/07/22 18:06:24;;;;;;;1.80;1.70;;;;;;;;;;6266620;28;20236;-80
2023/07/22 18:09:28;;;;;;;1.40;1.40;;;;;;;;;;6263467;28;20240;-80
2023/07/22 18:12:32;;;;;;;1.70;1.70;;;;;;;;;;6263625;28;20277;-79
2023/07/22 18:15:36;;;;;;;1.70;1.70;;;;;;;;;;6263399;28;20237;-80
2023/07/22 18:18:40;;;;;;;1.55;1.52;;;;;;;;;;6264135;28;20259;-79
2023/07/22 18:21:45;;;;;;;3.80;1.70;;;;;;;;;;6271238;28;20233;-79
2023/07/22 18:24:49;;;;;;;2.10;1.92;;;;;;;;;;6270221;28;20236;-80
2023/07/22 18:27:52;;;;;;;2.42;1.83;;;;;;;;;;6262874;28;20458;-79